Terminal Aerodrome Forecast
Issued by NWS Wilmington, OH

Current Version | Previous Version | Text Only | Print | Product List | Glossary Off
Versions: 1 2 3 4 5 6 7 8 9 10 11 12 13 14 15 16 17 18 19 20 21 22

000
FTUS41 KILN 260500
TAFCVG
TAF
KCVG 260532Z 2606/2712 13003KT P6SM SCT250
     FM260900 14002KT 4SM BR SKC
     FM261300 17004KT P6SM SKC
     FM261500 18004KT P6SM SCT035 SCT250
     FM262300 24004KT P6SM SCT250
     FM270800 21002KT 5SM BR BKN200=

USA.gov is the U.S. government's official web portal to all federal, state and local government web resources and services.